createdAt,value
2019-03-22T00:01:32.981Z,5.60
2019-03-22T00:06:36.573Z,5.60
2019-03-22T00:11:40.157Z,5.60
2019-03-22T00:16:43.759Z,5.60
2019-03-22T00:21:47.725Z,5.50
2019-03-22T00:26:51.380Z,5.40
2019-03-22T00:31:54.970Z,5.50
2019-03-22T00:36:58.557Z,5.40
2019-03-22T00:42:02.148Z,5.30
2019-03-22T00:47:05.810Z,5.30
2019-03-22T00:52:09.395Z,4.90
2019-03-22T00:57:12.986Z,5.10
2019-03-22T01:02:16.573Z,5.20
2019-03-22T01:07:20.229Z,5.40
2019-03-22T01:12:23.819Z,5.40
2019-03-22T01:17:27.869Z,5.40
2019-03-22T01:22:31.477Z,5.00
2019-03-22T01:27:40.410Z,4.90
2019-03-22T01:32:40.783Z,5.10
2019-03-22T01:37:44.377Z,4.90
2019-03-22T01:42:48.094Z,4.70
2019-03-22T01:47:51.923Z,4.90
2019-03-22T01:52:55.885Z,5.10
2019-03-22T01:57:59.782Z,5.00
2019-03-22T02:03:03.816Z,4.70
2019-03-22T02:08:07.506Z,4.40
2019-03-22T02:13:11.090Z,4.60
2019-03-22T02:18:14.827Z,4.80
2019-03-22T02:23:18.714Z,4.80
2019-03-22T02:28:22.301Z,4.60
2019-03-22T02:33:25.894Z,4.50
2019-03-22T02:38:29.476Z,4.50
2019-03-22T02:43:33.076Z,4.70
2019-03-22T02:48:37.025Z,4.70
2019-03-22T02:53:40.615Z,4.80
2019-03-22T02:58:44.647Z,4.80
2019-03-22T03:03:48.199Z,4.60
2019-03-22T03:08:52.141Z,4.60
2019-03-22T03:13:56.061Z,4.40
2019-03-22T03:18:59.646Z,4.20
2019-03-22T03:24:03.237Z,4.30
2019-03-22T03:29:06.889Z,4.10
2019-03-22T03:34:10.487Z,4.20
2019-03-22T03:39:14.078Z,4.20
2019-03-22T03:44:17.800Z,4.20
2019-03-22T03:49:21.452Z,4.50
2019-03-22T03:54:25.054Z,4.40
2019-03-22T03:59:28.640Z,4.40
2019-03-22T04:04:32.630Z,4.40
2019-03-22T04:09:36.219Z,4.30
2019-03-22T04:14:39.802Z,4.20
2019-03-22T04:19:43.766Z,4.40
2019-03-22T04:24:47.354Z,4.50
2019-03-22T04:29:50.943Z,4.50
2019-03-22T04:34:54.543Z,4.50
2019-03-22T04:39:58.141Z,4.50
2019-03-22T04:45:01.735Z,4.30
2019-03-22T04:50:06.739Z,3.90
2019-03-22T04:55:11.359Z,3.80
2019-03-22T05:00:16.184Z,3.80
2019-03-22T05:05:21.225Z,4.00
2019-03-22T05:10:26.274Z,4.00
2019-03-22T05:15:32.170Z,3.80
2019-03-22T05:20:37.128Z,3.90
2019-03-22T05:25:42.358Z,3.80
2019-03-22T05:31:18.816Z,3.90
2019-03-22T05:36:23.242Z,3.90
2019-03-22T05:41:27.196Z,3.70
2019-03-22T05:46:31.273Z,3.60
2019-03-22T05:51:35.262Z,3.70
2019-03-22T05:56:38.897Z,3.80
2019-03-22T06:01:45.140Z,3.90
2019-03-22T06:06:47.926Z,4.00
2019-03-22T06:11:51.589Z,3.90
2019-03-22T06:16:55.261Z,3.80
2019-03-22T06:21:58.851Z,3.80
2019-03-22T06:27:02.438Z,3.90
2019-03-22T06:32:06.130Z,3.80
2019-03-22T06:37:09.741Z,3.80
2019-03-22T06:42:13.335Z,4.10
2019-03-22T06:47:16.931Z,4.00
2019-03-22T06:52:20.525Z,4.10
2019-03-22T06:57:24.119Z,4.30
2019-03-22T07:02:27.709Z,4.50
2019-03-22T07:07:31.378Z,4.80
2019-03-22T07:12:34.979Z,5.20
2019-03-22T07:17:38.570Z,5.50
2019-03-22T07:22:42.172Z,5.80
2019-03-22T07:27:45.766Z,6.30
2019-03-22T07:32:49.387Z,6.70
2019-03-22T07:37:52.969Z,7.00
2019-03-22T07:42:56.561Z,7.30
2019-03-22T07:48:00.250Z,7.50
2019-03-22T07:53:04.315Z,7.80
2019-03-22T07:58:07.903Z,8.10
2019-03-22T08:03:11.499Z,8.40
2019-03-22T08:08:15.090Z,8.70
2019-03-22T08:13:19.038Z,9.10
2019-03-22T08:18:22.655Z,9.40
2019-03-22T08:23:26.264Z,9.80
2019-03-22T08:28:29.845Z,10.00
2019-03-22T08:33:33.432Z,10.20
2019-03-22T08:38:37.347Z,10.70
2019-03-22T08:43:40.948Z,11.80
2019-03-22T08:48:44.878Z,12.40
2019-03-22T08:53:55.260Z,12.60
2019-03-22T08:58:53.823Z,12.80
2019-03-22T09:03:57.412Z,13.10
2019-03-22T09:09:01.385Z,13.40
2019-03-22T09:14:05.058Z,13.60
2019-03-22T09:19:08.681Z,14.00
2019-03-22T09:24:12.705Z,14.60
2019-03-22T09:29:16.725Z,14.90
2019-03-22T09:34:32.878Z,15.60
2019-03-22T09:39:25.586Z,16.30
2019-03-22T09:44:42.401Z,16.50
2019-03-22T09:49:34.504Z,16.80
2019-03-22T09:54:38.427Z,17.30
2019-03-22T09:59:42.066Z,17.10
2019-03-22T10:04:45.675Z,17.60
2019-03-22T10:09:49.342Z,18.30
2019-03-22T10:14:54.323Z,18.60
2019-03-22T10:19:57.887Z,19.20
2019-03-22T10:25:01.867Z,19.30
2019-03-22T10:30:10.580Z,19.80
2019-03-22T10:35:25.523Z,20.00
2019-03-22T10:40:19.867Z,20.10
2019-03-22T10:45:23.466Z,20.30
2019-03-22T10:50:27.091Z,20.90
2019-03-22T10:55:31.016Z,21.10
2019-03-22T11:00:34.919Z,21.50
2019-03-22T11:05:38.541Z,21.60
2019-03-22T11:10:42.145Z,21.50
2019-03-22T11:15:48.728Z,21.90
2019-03-22T11:20:51.231Z,21.90
2019-03-22T11:26:03.816Z,21.50
2019-03-22T11:31:04.684Z,20.90
2019-03-22T11:36:06.206Z,22.00
2019-03-22T11:41:10.438Z,22.50
2019-03-22T11:46:14.389Z,22.50
2019-03-22T11:51:18.956Z,23.10
2019-03-22T11:56:22.851Z,23.00
2019-03-22T12:01:45.786Z,23.80
2019-03-22T12:06:49.537Z,23.70
2019-03-22T12:11:53.150Z,23.60
2019-03-22T12:16:56.867Z,23.70
2019-03-22T12:22:00.436Z,24.30
2019-03-22T12:27:04.098Z,24.20
2019-03-22T12:32:08.571Z,24.50
2019-03-22T12:37:12.162Z,23.70
2019-03-22T12:42:15.902Z,24.50
2019-03-22T12:47:19.568Z,25.00
2019-03-22T12:52:23.162Z,24.90
2019-03-22T12:57:26.761Z,25.00
2019-03-22T13:02:30.688Z,25.50
2019-03-22T13:07:34.428Z,25.40
2019-03-22T13:12:38.164Z,25.50
2019-03-22T13:17:41.846Z,24.60
2019-03-22T13:22:45.947Z,25.00
2019-03-22T13:27:49.717Z,25.60
2019-03-22T13:32:53.329Z,25.60
2019-03-22T13:37:57.295Z,26.00
2019-03-22T13:43:00.957Z,26.10
2019-03-22T13:48:05.132Z,25.70
2019-03-22T13:53:08.794Z,26.10
2019-03-22T13:58:13.226Z,26.00
2019-03-22T14:03:16.795Z,25.60
2019-03-22T14:08:20.771Z,25.30
2019-03-22T14:13:24.675Z,25.10
2019-03-22T14:18:28.279Z,25.20
2019-03-22T14:23:31.945Z,25.10
2019-03-22T14:28:35.616Z,24.90
2019-03-22T14:33:39.573Z,24.10
2019-03-22T14:38:44.340Z,24.30
2019-03-22T14:43:48.101Z,24.20
2019-03-22T14:48:51.752Z,23.80
2019-03-22T14:53:55.471Z,23.80
2019-03-22T14:58:59.069Z,24.00
2019-03-22T15:04:02.742Z,23.80
2019-03-22T15:09:07.587Z,23.40
2019-03-22T15:14:28.131Z,22.90
2019-03-22T15:19:36.830Z,22.90
2019-03-22T15:24:48.258Z,22.90
2019-03-22T15:30:10.915Z,22.50
2019-03-22T15:35:16.361Z,22.20
2019-03-22T15:40:19.918Z,21.90
2019-03-22T15:45:30.302Z,21.70
2019-03-22T15:50:34.518Z,21.50
2019-03-22T15:55:38.182Z,21.30
2019-03-22T16:00:42.250Z,21.30
2019-03-22T16:05:45.919Z,20.50
2019-03-22T16:10:49.523Z,20.80
2019-03-22T16:15:53.544Z,20.50
2019-03-22T16:21:00.069Z,20.40
2019-03-22T16:26:02.581Z,20.40
2019-03-22T16:31:06.268Z,20.50
2019-03-22T16:36:09.996Z,20.30
2019-03-22T16:41:13.694Z,20.50
2019-03-22T16:46:17.808Z,20.30
2019-03-22T16:51:21.838Z,20.00
2019-03-22T16:56:27.198Z,19.80
2019-03-22T17:01:34.082Z,19.70
2019-03-22T17:06:37.858Z,19.50
2019-03-22T17:11:41.464Z,19.50
2019-03-22T17:16:45.135Z,18.70
2019-03-22T17:21:48.821Z,18.60
2019-03-22T17:26:52.858Z,17.90
2019-03-22T17:31:56.597Z,17.60
2019-03-22T17:37:00.623Z,17.10
2019-03-22T17:42:04.818Z,16.60
2019-03-22T17:47:08.490Z,16.10
2019-03-22T17:52:12.193Z,15.60
2019-03-22T17:57:18.926Z,14.80
2019-03-22T18:02:21.631Z,14.30
2019-03-22T18:07:25.275Z,14.20
2019-03-22T18:12:28.865Z,13.90
2019-03-22T18:17:32.478Z,13.80
2019-03-22T18:22:36.198Z,13.30
2019-03-22T18:27:39.926Z,12.90
2019-03-22T18:32:43.762Z,12.60
2019-03-22T18:37:47.464Z,12.50
2019-03-22T18:42:51.033Z,12.30
2019-03-22T18:47:54.622Z,12.20
2019-03-22T18:52:58.286Z,12.20
2019-03-22T18:58:01.954Z,12.30
2019-03-22T19:03:05.550Z,12.20
2019-03-22T19:08:09.170Z,12.20
2019-03-22T19:13:13.125Z,12.20
2019-03-22T19:18:17.129Z,12.20
2019-03-22T19:23:21.183Z,12.30
2019-03-22T19:28:25.111Z,12.10
2019-03-22T19:33:28.849Z,11.60
2019-03-22T19:38:32.850Z,11.50
2019-03-22T19:43:36.778Z,11.30
2019-03-22T19:48:40.370Z,11.20
2019-03-22T19:53:43.982Z,11.10
2019-03-22T19:58:47.582Z,11.00
2019-03-22T20:03:51.602Z,10.90
2019-03-22T20:08:55.262Z,10.80
2019-03-22T20:13:58.877Z,10.80
2019-03-22T20:19:02.470Z,10.80
2019-03-22T20:24:06.066Z,10.60
2019-03-22T20:29:09.738Z,10.50
2019-03-22T20:34:14.690Z,10.70
2019-03-22T20:39:18.592Z,10.50
2019-03-22T20:44:22.196Z,10.40
2019-03-22T20:49:25.789Z,10.40
2019-03-22T20:54:29.466Z,10.00
2019-03-22T20:59:33.066Z,9.90
2019-03-22T21:04:36.668Z,9.50
2019-03-22T21:09:40.262Z,9.40
2019-03-22T21:14:43.882Z,9.40
2019-03-22T21:19:47.805Z,9.60
2019-03-22T21:24:51.396Z,9.60
2019-03-22T21:29:54.992Z,9.70
2019-03-22T21:34:58.584Z,9.60
2019-03-22T21:40:02.254Z,9.50
2019-03-22T21:45:07.037Z,9.60
2019-03-22T21:50:11.631Z,9.60
2019-03-22T21:55:15.251Z,9.60
2019-03-22T22:00:18.911Z,9.50
2019-03-22T22:05:22.498Z,9.20
2019-03-22T22:10:26.170Z,9.00
2019-03-22T22:15:29.769Z,8.90
2019-03-22T22:20:33.349Z,9.10
2019-03-22T22:25:37.246Z,9.00
2019-03-22T22:30:40.905Z,9.00
2019-03-22T22:35:46.855Z,8.70
2019-03-22T22:40:50.014Z,8.70
2019-03-22T22:45:53.599Z,8.60
2019-03-22T22:50:57.614Z,8.50
2019-03-22T22:56:01.203Z,8.20
2019-03-22T23:01:05.050Z,8.10
2019-03-22T23:06:09.696Z,8.00
2019-03-22T23:11:14.046Z,8.00
2019-03-22T23:16:17.651Z,8.00
2019-03-22T23:21:21.761Z,7.80
2019-03-22T23:26:25.347Z,7.80
2019-03-22T23:31:28.945Z,7.70
2019-03-22T23:36:32.621Z,7.50
2019-03-22T23:41:36.278Z,7.50
2019-03-22T23:46:39.934Z,7.70
2019-03-22T23:51:43.537Z,7.50
2019-03-22T23:56:47.145Z,7.40
